createdAt,value
2023-03-18T00:00:39.534Z,24.03
2023-03-18T00:01:39.538Z,24.04
2023-03-18T00:02:39.619Z,24.03
2023-03-18T00:03:39.604Z,24.04
2023-03-18T00:04:39.542Z,24.05
2023-03-18T00:05:39.561Z,24.07
2023-03-18T00:06:39.566Z,24.07
2023-03-18T00:07:39.612Z,24.05
2023-03-18T00:08:39.570Z,24.06
2023-03-18T00:09:39.574Z,24.02
2023-03-18T00:10:39.626Z,24.05
2023-03-18T00:11:39.579Z,24.06
2023-03-18T00:12:39.594Z,24.05
2023-03-18T00:13:39.625Z,24.06
2023-03-18T00:14:39.591Z,24.04
2023-03-18T00:15:39.604Z,24.04
2023-03-18T00:16:39.610Z,24.04
2023-03-18T00:17:39.597Z,24.02
2023-03-18T00:18:39.613Z,24.00
2023-03-18T00:19:39.590Z,24.05
2023-03-18T00:20:39.602Z,24.04
2023-03-18T00:21:39.634Z,24.05
2023-03-18T00:22:39.629Z,24.04
2023-03-18T00:23:39.598Z,24.03
2023-03-18T00:24:39.612Z,24.02
2023-03-18T00:25:39.598Z,24.01
2023-03-18T00:26:39.612Z,24.03
2023-03-18T00:27:39.601Z,24.04
2023-03-18T00:28:39.631Z,24.02
2023-03-18T00:29:39.606Z,24.02
2023-03-18T00:30:39.595Z,24.01
2023-03-18T00:31:39.618Z,24.04
2023-03-18T00:32:39.613Z,24.03
2023-03-18T00:33:39.640Z,24.02
2023-03-18T00:34:39.607Z,24.01
2023-03-18T00:35:39.605Z,24.02
2023-03-18T00:36:39.590Z,24.03
2023-03-18T00:37:39.614Z,24.02
2023-03-18T00:38:39.619Z,24.01
2023-03-18T00:39:39.624Z,24.02
2023-03-18T00:40:39.594Z,24.00
2023-03-18T00:41:39.594Z,24.01
2023-03-18T00:42:39.599Z,24.02
2023-03-18T00:43:39.633Z,24.02
2023-03-18T00:44:39.603Z,24.03
2023-03-18T00:45:39.633Z,24.02
2023-03-18T00:46:39.636Z,24.03
2023-03-18T00:47:39.636Z,24.03
2023-03-18T00:48:39.657Z,24.04
2023-03-18T00:49:39.650Z,24.01
2023-03-18T00:50:39.634Z,24.00
2023-03-18T00:51:39.649Z,24.01
2023-03-18T00:52:39.643Z,24.02
2023-03-18T00:53:39.651Z,24.02
2023-03-18T00:54:39.653Z,24.02
2023-03-18T00:55:39.651Z,24.02
2023-03-18T00:56:39.668Z,24.02
2023-03-18T00:57:39.670Z,24.03
2023-03-18T00:58:39.671Z,24.03
2023-03-18T00:59:39.666Z,24.02
2023-03-18T01:00:39.683Z,23.99
2023-03-18T01:01:39.778Z,24.02
2023-03-18T01:03:39.701Z,24.01
2023-03-18T01:04:39.703Z,24.01
2023-03-18T01:05:39.721Z,24.03
2023-03-18T01:06:39.734Z,24.03
2023-03-18T01:07:39.735Z,24.02
2023-03-18T01:08:39.748Z,24.02
2023-03-18T01:09:39.738Z,24.03
2023-03-18T01:10:39.786Z,24.02
2023-03-18T01:11:39.783Z,24.02
2023-03-18T01:12:39.781Z,24.01
2023-03-18T01:13:39.817Z,24.01
2023-03-18T01:14:39.823Z,24.03
2023-03-18T01:15:39.822Z,24.02
2023-03-18T01:16:39.858Z,24.03
2023-03-18T01:17:39.829Z,24.01
2023-03-18T01:18:39.829Z,24.02
2023-03-18T01:19:39.871Z,24.01
2023-03-18T01:20:39.863Z,24.06
2023-03-18T01:21:39.858Z,24.05
2023-03-18T01:22:39.861Z,24.02
2023-03-18T01:23:39.894Z,24.03
2023-03-18T01:24:39.901Z,24.02
2023-03-18T01:25:39.901Z,24.02
2023-03-18T01:26:39.902Z,24.03
2023-03-18T01:27:39.906Z,24.03
2023-03-18T01:28:39.934Z,24.03
2023-03-18T01:29:39.941Z,24.03
2023-03-18T01:30:39.945Z,24.04
2023-03-18T01:31:39.994Z,24.02
2023-03-18T01:32:39.972Z,24.02
2023-03-18T01:33:39.949Z,24.04
2023-03-18T01:34:40.018Z,24.02
2023-03-18T01:35:40.093Z,24.02
2023-03-18T01:36:39.980Z,24.02
2023-03-18T01:37:39.994Z,24.03
2023-03-18T01:38:39.987Z,24.02
2023-03-18T01:39:39.991Z,24.01
2023-03-18T01:40:39.996Z,24.02
2023-03-18T01:41:39.992Z,24.01
2023-03-18T01:42:39.994Z,24.02
2023-03-18T01:43:39.997Z,24.02
2023-03-18T01:44:40.030Z,24.01
2023-03-18T01:45:40.042Z,24.02
2023-03-18T01:46:40.041Z,24.01
2023-03-18T01:47:40.066Z,23.98
2023-03-18T01:48:40.086Z,24.01
2023-03-18T01:49:40.068Z,23.97
2023-03-18T01:50:40.089Z,23.98
2023-03-18T01:51:40.071Z,24.01
2023-03-18T01:52:40.075Z,23.99
2023-03-18T01:53:40.109Z,24.00
2023-03-18T01:54:40.108Z,24.03
2023-03-18T01:55:40.129Z,24.00
2023-03-18T01:56:40.122Z,24.00
2023-03-18T01:57:40.148Z,24.01
2023-03-18T01:58:40.119Z,23.97
2023-03-18T01:59:40.145Z,24.01
2023-03-18T02:00:40.153Z,23.99
2023-03-18T02:01:40.166Z,24.01
2023-03-18T02:02:40.157Z,24.00
2023-03-18T02:03:40.172Z,24.00
2023-03-18T02:04:40.191Z,24.00
2023-03-18T02:05:40.172Z,24.01
2023-03-18T02:10:40.290Z,24.00
2023-03-18T02:11:40.240Z,23.99
2023-03-18T02:12:40.248Z,24.00
2023-03-18T02:13:40.268Z,24.01
2023-03-18T02:14:40.278Z,23.97
2023-03-18T02:15:40.296Z,23.97
2023-03-18T02:16:40.345Z,24.02
2023-03-18T02:17:40.302Z,24.00
2023-03-18T02:18:40.321Z,24.00
2023-03-18T02:19:40.322Z,24.00
2023-03-18T02:20:40.302Z,24.00
2023-03-18T02:21:40.378Z,24.00
2023-03-18T02:22:40.386Z,24.02
2023-03-18T02:23:40.345Z,24.00
2023-03-18T02:24:40.371Z,24.01
2023-03-18T02:25:40.350Z,24.02
2023-03-18T02:26:40.366Z,23.98
2023-03-18T02:27:40.380Z,23.98
2023-03-18T02:28:40.372Z,23.98
2023-03-18T02:29:40.450Z,24.00
2023-03-18T02:30:40.405Z,23.99
2023-03-18T02:31:40.381Z,23.99
2023-03-18T02:32:40.424Z,23.98
2023-03-18T02:33:40.406Z,24.00
2023-03-18T02:34:40.402Z,23.98
2023-03-18T02:35:40.434Z,23.98
2023-03-18T02:36:40.424Z,23.98
2023-03-18T02:37:40.442Z,24.00
2023-03-18T02:38:40.430Z,23.99
2023-03-18T02:39:40.449Z,23.99
2023-03-18T02:40:40.464Z,23.99
2023-03-18T02:41:40.462Z,23.99
2023-03-18T02:42:40.475Z,23.97
2023-03-18T02:43:40.481Z,23.99
2023-03-18T02:44:40.501Z,23.98
2023-03-18T02:45:40.497Z,23.99
2023-03-18T02:46:40.512Z,23.97
2023-03-18T02:47:40.510Z,23.96
2023-03-18T02:48:40.516Z,23.98
2023-03-18T02:49:40.585Z,23.97
2023-03-18T02:50:42.301Z,24.00
2023-03-18T02:51:40.547Z,23.99
2023-03-18T02:52:40.583Z,23.99
2023-03-18T02:53:40.557Z,23.99
2023-03-18T02:54:40.584Z,23.94
2023-03-18T02:55:40.599Z,23.96
2023-03-18T02:56:40.570Z,23.98
2023-03-18T02:57:40.576Z,23.99
2023-03-18T02:58:40.582Z,23.99
2023-03-18T02:59:40.578Z,23.98
2023-03-18T03:00:40.591Z,23.99
2023-03-18T03:01:40.627Z,23.98
2023-03-18T03:02:40.709Z,23.98
2023-03-18T03:03:40.687Z,23.99
2023-03-18T03:04:40.613Z,23.98
2023-03-18T03:05:40.643Z,24.01
2023-03-18T03:06:40.658Z,23.98
2023-03-18T03:07:40.644Z,23.97
2023-03-18T03:08:40.648Z,23.98
2023-03-18T03:09:40.654Z,23.98
2023-03-18T03:10:40.652Z,23.97
2023-03-18T03:11:40.686Z,23.98
2023-03-18T03:12:40.659Z,23.99
2023-03-18T03:13:40.673Z,24.00
2023-03-18T03:14:40.695Z,23.99
2023-03-18T03:15:40.725Z,23.99
2023-03-18T03:16:40.669Z,24.00
2023-03-18T03:17:40.678Z,24.00
2023-03-18T03:18:40.691Z,23.98
2023-03-18T03:19:40.689Z,23.98
2023-03-18T03:20:40.709Z,23.96
2023-03-18T03:21:40.705Z,23.99
2023-03-18T03:22:40.698Z,23.97
2023-03-18T03:23:40.705Z,23.98
2023-03-18T03:24:40.705Z,23.96
2023-03-18T03:25:40.706Z,23.96
2023-03-18T03:26:40.712Z,23.98
2023-03-18T03:27:40.710Z,23.98
2023-03-18T03:28:40.737Z,23.99
2023-03-18T03:29:40.719Z,23.96
2023-03-18T03:30:40.745Z,23.98
2023-03-18T03:31:40.730Z,23.95
2023-03-18T03:32:40.782Z,23.97
2023-03-18T03:33:40.730Z,23.96
2023-03-18T03:34:40.761Z,23.97
2023-03-18T03:35:40.784Z,23.97
2023-03-18T03:36:40.769Z,23.97
2023-03-18T03:37:40.765Z,23.98
2023-03-18T03:38:40.760Z,24.00
2023-03-18T03:39:40.760Z,23.96
2023-03-18T03:40:40.772Z,23.98
2023-03-18T03:41:40.755Z,23.97
2023-03-18T03:42:40.763Z,23.97
2023-03-18T03:43:40.775Z,23.96
2023-03-18T03:44:40.804Z,23.97
2023-03-18T03:45:40.760Z,23.96
2023-03-18T03:46:40.813Z,23.95
2023-03-18T03:47:40.776Z,23.97
2023-03-18T03:48:40.788Z,23.98
2023-03-18T03:49:40.787Z,23.99
2023-03-18T03:50:40.792Z,23.97
2023-03-18T03:51:40.789Z,23.98
2023-03-18T03:52:40.784Z,23.98
2023-03-18T03:53:40.799Z,23.96
2023-03-18T03:54:40.803Z,23.98
2023-03-18T03:55:40.792Z,23.98
2023-03-18T03:56:40.806Z,23.96
2023-03-18T03:57:40.804Z,23.98
2023-03-18T03:58:40.816Z,23.98
2023-03-18T03:59:40.825Z,23.97
2023-03-18T04:00:40.830Z,23.98
2023-03-18T04:01:40.822Z,23.97
2023-03-18T04:02:40.882Z,23.97
2023-03-18T04:03:40.834Z,23.98
2023-03-18T04:04:40.855Z,23.96
2023-03-18T04:05:40.870Z,23.97
2023-03-18T04:06:40.861Z,23.99
2023-03-18T04:07:40.874Z,23.98
2023-03-18T04:08:40.860Z,23.98
2023-03-18T04:09:40.877Z,23.99
2023-03-18T04:10:40.874Z,23.98
2023-03-18T04:11:40.878Z,24.01
2023-03-18T04:12:40.894Z,24.00
2023-03-18T04:13:40.878Z,23.99
2023-03-18T04:14:40.891Z,23.96
2023-03-18T04:15:40.927Z,23.98
2023-03-18T04:16:40.899Z,23.99
2023-03-18T04:17:40.921Z,24.01
2023-03-18T04:18:40.923Z,23.98
2023-03-18T04:19:40.931Z,23.99
2023-03-18T04:20:40.957Z,23.98
2023-03-18T04:21:40.922Z,24.00
2023-03-18T04:22:40.936Z,23.99
2023-03-18T04:51:41.095Z,23.99
2023-03-18T04:58:41.148Z,23.98
2023-03-18T05:00:41.161Z,23.99
2023-03-18T05:02:41.090Z,23.97
2023-03-18T05:03:41.114Z,23.97
2023-03-18T05:05:41.127Z,23.97
2023-03-18T05:08:41.133Z,23.98
2023-03-18T05:09:41.143Z,23.97
2023-03-18T05:10:41.164Z,23.98
2023-03-18T05:11:41.181Z,23.98
2023-03-18T05:12:41.170Z,23.99
2023-03-18T05:13:41.220Z,23.99
2023-03-18T05:15:41.210Z,24.00
2023-03-18T05:17:41.215Z,24.00
2023-03-18T05:20:41.254Z,23.99
2023-03-18T05:22:41.259Z,23.99
2023-03-18T05:23:41.279Z,23.99
2023-03-18T05:41:41.406Z,23.97
2023-03-18T05:43:41.427Z,23.97
2023-03-18T08:50:45.319Z,23.33
2023-03-18T08:51:45.339Z,23.32
2023-03-18T08:52:45.402Z,23.28
2023-03-18T08:53:45.464Z,23.29
2023-03-18T08:54:45.509Z,23.29
2023-03-18T08:55:45.564Z,23.27
2023-03-18T08:56:45.632Z,23.29
2023-03-18T08:57:45.673Z,23.28
2023-03-18T08:58:45.774Z,23.27
2023-03-18T08:59:45.801Z,23.28
2023-03-18T09:00:45.896Z,23.26
2023-03-18T09:01:45.896Z,23.25
2023-03-18T09:02:45.952Z,23.26
2023-03-18T09:03:46.093Z,23.25
2023-03-18T09:04:46.053Z,23.25
2023-03-18T09:05:46.133Z,23.23
2023-03-18T09:06:46.169Z,23.23
2023-03-18T09:07:46.225Z,23.20
2023-03-18T09:08:46.276Z,23.22
2023-03-18T09:09:46.400Z,23.19
2023-03-18T09:10:46.375Z,23.18
2023-03-18T09:11:46.447Z,23.21
2023-03-18T09:12:46.481Z,23.19
2023-03-18T09:13:46.529Z,23.17
2023-03-18T09:14:46.597Z,23.19
2023-03-18T09:15:46.675Z,23.19
2023-03-18T09:16:46.716Z,23.17
2023-03-18T09:17:56.456Z,23.19
2023-03-18T09:18:48.843Z,23.20
2023-03-18T09:19:46.742Z,23.18
2023-03-18T09:20:46.780Z,23.18
2023-03-18T09:21:46.719Z,23.18
2023-03-18T09:22:46.709Z,23.18
2023-03-18T09:23:46.709Z,23.20
2023-03-18T09:24:46.709Z,23.20
2023-03-18T09:25:46.707Z,23.19
2023-03-18T09:26:46.698Z,23.19
2023-03-18T09:27:46.682Z,23.18
2023-03-18T09:28:46.692Z,23.19
2023-03-18T09:29:46.716Z,23.17
2023-03-18T09:30:46.826Z,23.17
2023-03-18T09:31:46.832Z,23.16
2023-03-18T09:32:46.971Z,23.16
2023-03-18T09:33:46.922Z,23.17
2023-03-18T09:34:46.970Z,23.16
2023-03-18T09:35:47.051Z,23.16
2023-03-18T09:36:47.072Z,23.15
2023-03-18T09:37:47.135Z,23.14
2023-03-18T09:38:47.163Z,23.15
2023-03-18T09:39:47.220Z,23.12
2023-03-18T09:40:47.285Z,23.10
2023-03-18T09:41:47.321Z,23.12
2023-03-18T09:42:47.382Z,23.12
2023-03-18T09:43:47.480Z,23.09
2023-03-18T09:44:47.493Z,23.12
2023-03-18T09:45:47.559Z,23.11
2023-03-18T09:46:47.739Z,23.09
2023-03-18T09:47:47.628Z,23.08
2023-03-18T09:48:47.697Z,23.07
2023-03-18T09:49:47.742Z,23.08
2023-03-18T09:50:47.837Z,23.07
2023-03-18T09:51:47.843Z,23.06
2023-03-18T09:52:47.883Z,23.07
2023-03-18T09:53:47.949Z,23.09
2023-03-18T09:54:48.022Z,23.10
2023-03-18T09:55:48.086Z,23.10
2023-03-18T09:56:48.112Z,23.10
2023-03-18T09:57:48.169Z,23.07
2023-03-18T09:58:48.266Z,23.06
2023-03-18T09:59:48.265Z,23.05
2023-03-18T10:00:48.293Z,23.05
2023-03-18T10:01:48.352Z,23.05
2023-03-18T10:02:48.395Z,23.04
2023-03-18T10:03:48.472Z,23.03
2023-03-18T10:04:48.512Z,23.03
2023-03-18T10:05:48.535Z,23.03
2023-03-18T10:06:48.599Z,23.01
2023-03-18T10:07:48.645Z,23.00
2023-03-18T10:08:48.718Z,22.99
2023-03-18T10:09:48.778Z,23.01
2023-03-18T10:10:48.787Z,22.99
2023-03-18T10:11:48.829Z,22.99
2023-03-18T10:12:48.897Z,22.96
2023-03-18T10:13:48.961Z,22.98
2023-03-18T10:14:48.930Z,22.95
2023-03-18T10:15:48.966Z,22.95
2023-03-18T10:16:48.929Z,22.94
2023-03-18T10:17:48.899Z,22.93
2023-03-18T10:18:48.911Z,22.94
2023-03-18T10:19:48.898Z,22.93
2023-03-18T10:20:48.884Z,22.92
2023-03-18T10:21:48.871Z,22.92
2023-03-18T10:22:48.874Z,22.93
2023-03-18T10:23:48.841Z,22.93
2023-03-18T10:24:48.841Z,22.91
2023-03-18T10:25:49.419Z,22.90
2023-03-18T10:26:48.856Z,22.93
2023-03-18T10:27:48.835Z,22.91
2023-03-18T10:28:48.790Z,22.92
2023-03-18T10:29:48.778Z,22.90
2023-03-18T10:30:48.783Z,22.89
2023-03-18T10:31:48.762Z,22.90
2023-03-18T10:32:50.409Z,22.89
2023-03-18T10:33:48.717Z,22.90
2023-03-18T10:34:48.693Z,22.89
2023-03-18T10:35:48.710Z,22.89
2023-03-18T10:36:48.658Z,22.86
2023-03-18T10:37:48.625Z,22.88
2023-03-18T10:38:48.658Z,22.87
2023-03-18T10:39:48.630Z,22.84
2023-03-18T10:40:48.594Z,22.83
2023-03-18T10:41:48.594Z,22.83
2023-03-18T10:42:48.562Z,22.81
2023-03-18T10:43:48.536Z,22.80
2023-03-18T10:44:48.581Z,22.81
2023-03-18T10:45:48.506Z,22.79
2023-03-18T10:46:48.586Z,22.79
2023-03-18T10:47:48.474Z,22.77
2023-03-18T10:48:48.480Z,22.77
2023-03-18T10:49:48.452Z,22.76
2023-03-18T10:50:48.456Z,22.75
2023-03-18T10:51:48.421Z,22.74
2023-03-18T10:52:48.409Z,22.73
2023-03-18T10:53:48.376Z,22.69
2023-03-18T10:54:48.373Z,22.72
2023-03-18T10:55:48.344Z,22.72
2023-03-18T10:56:48.319Z,22.71
2023-03-18T10:57:48.314Z,22.72
2023-03-18T10:58:48.288Z,22.72
2023-03-18T10:59:48.281Z,22.71
2023-03-18T11:00:48.287Z,22.72
2023-03-18T11:01:48.291Z,22.74
2023-03-18T11:02:48.258Z,22.73
2023-03-18T11:03:48.256Z,22.74
2023-03-18T11:04:48.254Z,22.74
2023-03-18T11:05:48.170Z,22.73
2023-03-18T11:06:48.165Z,22.71
2023-03-18T11:07:48.155Z,22.72
2023-03-18T11:08:48.136Z,22.72
2023-03-18T11:09:48.105Z,22.70
2023-03-18T11:10:48.115Z,22.70
2023-03-18T11:11:48.067Z,22.70
2023-03-18T11:12:48.073Z,22.71
2023-03-18T11:13:48.034Z,22.72
2023-03-18T11:14:48.031Z,22.73
2023-03-18T11:15:48.034Z,22.71
2023-03-18T11:16:48.017Z,22.72
2023-03-18T11:17:48.003Z,22.70
2023-03-18T11:18:47.961Z,22.69
2023-03-18T11:19:47.946Z,22.70
2023-03-18T11:20:47.943Z,22.67
2023-03-18T11:21:47.908Z,22.66
2023-03-18T11:22:47.906Z,22.66
2023-03-18T11:23:47.894Z,22.65
2023-03-18T11:24:47.870Z,22.66
2023-03-18T11:25:47.848Z,22.68
2023-03-18T11:26:47.851Z,22.68
2023-03-18T11:27:47.810Z,22.67
2023-03-18T11:28:47.796Z,22.69
2023-03-18T11:29:47.787Z,22.73
2023-03-18T11:30:47.881Z,22.70
2023-03-18T11:31:47.749Z,22.70
2023-03-18T11:32:47.772Z,22.69
2023-03-18T11:33:47.718Z,22.69
2023-03-18T11:34:47.693Z,22.68
2023-03-18T11:35:47.732Z,22.68
2023-03-18T11:36:47.663Z,22.68
2023-03-18T11:37:47.645Z,22.69
2023-03-18T11:38:47.621Z,22.69
2023-03-18T11:39:47.596Z,22.67
2023-03-18T11:40:47.593Z,22.65
2023-03-18T11:41:47.557Z,22.63
2023-03-18T11:42:47.531Z,22.62
2023-03-18T11:43:47.526Z,22.63
2023-03-18T11:44:47.511Z,22.60
2023-03-18T11:45:47.488Z,22.61
2023-03-18T11:46:47.503Z,22.60
2023-03-18T11:47:47.431Z,22.61
2023-03-18T11:48:47.424Z,22.57
2023-03-18T11:49:47.397Z,22.56
2023-03-18T11:50:47.378Z,22.57
2023-03-18T11:51:47.338Z,22.57
2023-03-18T11:52:47.328Z,22.56
2023-03-18T11:53:47.304Z,22.55
2023-03-18T11:54:47.270Z,22.52
2023-03-18T11:55:47.261Z,22.53
2023-03-18T11:56:47.230Z,22.50
2023-03-18T11:57:47.207Z,22.52
2023-03-18T11:58:47.222Z,22.50
2023-03-18T11:59:47.178Z,22.50
2023-03-18T12:00:47.181Z,22.49
2023-03-18T12:01:47.183Z,22.49
2023-03-18T12:02:47.139Z,22.49
2023-03-18T12:03:47.121Z,22.48
2023-03-18T12:04:47.162Z,22.48
2023-03-18T12:05:47.087Z,22.48
2023-03-18T12:06:47.097Z,22.46
2023-03-18T12:07:47.082Z,22.47
2023-03-18T12:08:47.059Z,22.47
2023-03-18T12:09:47.066Z,22.45
2023-03-18T12:10:47.045Z,22.47
2023-03-18T12:11:47.024Z,22.46
2023-03-18T12:12:47.017Z,22.45
2023-03-18T12:13:47.003Z,22.46
2023-03-18T12:14:47.008Z,22.43
2023-03-18T12:15:46.974Z,22.43
2023-03-18T12:16:47.025Z,22.43
2023-03-18T12:17:46.949Z,22.41
2023-03-18T12:18:46.927Z,22.43
2023-03-18T12:19:46.907Z,22.44
2023-03-18T12:20:46.883Z,22.42
2023-03-18T12:21:46.861Z,22.41
2023-03-18T12:22:46.841Z,22.42
2023-03-18T12:23:48.505Z,22.41
2023-03-18T12:24:46.777Z,22.40
2023-03-18T12:25:46.774Z,22.42
2023-03-18T12:26:46.729Z,22.40
2023-03-18T12:27:46.733Z,22.41
2023-03-18T12:28:46.717Z,22.41
2023-03-18T12:29:46.666Z,22.40
2023-03-18T12:30:46.656Z,22.39
2023-03-18T12:31:46.664Z,22.39
2023-03-18T12:32:46.621Z,22.40
2023-03-18T12:33:46.557Z,22.41
2023-03-18T12:34:46.536Z,22.39
2023-03-18T12:35:46.555Z,22.38
2023-03-18T12:36:46.467Z,22.38
2023-03-18T12:37:46.443Z,22.39
2023-03-18T12:38:46.427Z,22.36
2023-03-18T12:39:46.372Z,22.38
2023-03-18T12:40:46.361Z,22.37
2023-03-18T12:41:46.327Z,22.37
2023-03-18T12:42:46.291Z,22.38
2023-03-18T12:43:46.274Z,22.36
2023-03-18T12:44:46.238Z,22.37
2023-03-18T12:45:46.267Z,22.40
2023-03-18T12:46:46.169Z,22.38
2023-03-18T12:47:46.148Z,22.37
2023-03-18T12:48:46.147Z,22.36
2023-03-18T12:49:46.086Z,22.35
2023-03-18T12:50:46.046Z,22.37
2023-03-18T12:51:46.045Z,22.35
2023-03-18T12:52:46.049Z,22.37
2023-03-18T12:53:45.988Z,22.38
2023-03-18T12:54:45.948Z,22.37
2023-03-18T12:55:45.914Z,22.38
2023-03-18T12:56:45.889Z,22.36
2023-03-18T12:57:45.854Z,22.37
2023-03-18T12:58:45.836Z,22.35
2023-03-18T12:59:45.810Z,22.36
2023-03-18T13:00:45.833Z,22.38
2023-03-18T13:01:45.745Z,22.37
2023-03-18T13:02:45.768Z,22.36
2023-03-18T13:03:45.651Z,22.37
2023-03-18T13:04:45.613Z,22.37
2023-03-18T13:05:45.617Z,22.36
2023-03-18T13:06:45.576Z,22.36
2023-03-18T13:07:45.524Z,22.36
2023-03-18T13:08:45.487Z,22.36
2023-03-18T13:09:45.460Z,22.36
2023-03-18T13:10:45.434Z,22.34
2023-03-18T13:11:45.411Z,22.35
2023-03-18T13:12:45.396Z,22.34
2023-03-18T13:13:45.337Z,22.34
2023-03-18T13:14:45.326Z,22.34
2023-03-18T13:15:45.294Z,22.33
2023-03-18T15:32:42.082Z,22.77
2023-03-18T15:33:42.015Z,22.78
2023-03-18T15:34:41.985Z,22.78
2023-03-18T15:35:42.004Z,22.78
2023-03-18T15:36:41.949Z,22.80
2023-03-18T15:37:41.918Z,22.80
2023-03-18T15:38:41.896Z,22.81
2023-03-18T15:39:41.875Z,22.82
2023-03-18T15:40:41.866Z,22.81
2023-03-18T15:41:41.920Z,22.82
2023-03-18T15:42:41.824Z,22.80
2023-03-18T15:43:41.804Z,22.81
2023-03-18T15:44:41.788Z,22.83
2023-03-18T15:45:41.768Z,22.83
2023-03-18T15:46:41.747Z,22.85
2023-03-18T15:47:41.738Z,22.83
2023-03-18T15:48:41.725Z,22.84
2023-03-18T15:49:41.700Z,22.83
2023-03-18T15:50:41.675Z,22.87
2023-03-18T15:51:41.668Z,22.86
2023-03-18T15:52:41.633Z,22.87
2023-03-18T15:53:41.648Z,22.88
2023-03-18T15:54:41.629Z,22.87
2023-03-18T15:55:41.582Z,22.89
2023-03-18T15:56:41.565Z,22.91
2023-03-18T15:57:41.541Z,22.90
2023-03-18T15:58:41.545Z,22.89
2023-03-18T15:59:41.511Z,22.90
2023-03-18T16:00:41.493Z,22.92
2023-03-18T16:01:41.490Z,22.92
2023-03-18T16:02:41.488Z,22.92
2023-03-18T16:03:41.487Z,22.92
2023-03-18T16:04:41.419Z,22.94
2023-03-18T16:05:41.426Z,22.95
2023-03-18T16:06:41.391Z,22.96
2023-03-18T16:07:41.391Z,22.97
2023-03-18T16:08:41.376Z,22.95
2023-03-18T16:09:41.345Z,22.95
2023-03-18T16:10:41.390Z,22.97
2023-03-18T16:11:41.326Z,22.98
2023-03-18T16:12:41.300Z,22.98
2023-03-18T16:13:41.292Z,22.97
2023-03-18T16:14:41.261Z,23.00
2023-03-18T16:15:41.263Z,23.01
2023-03-18T16:16:41.257Z,22.99
2023-03-18T16:17:41.250Z,23.00
2023-03-18T16:18:41.221Z,23.01
2023-03-18T16:19:41.210Z,23.01
2023-03-18T16:20:41.169Z,23.02
2023-03-18T16:21:41.141Z,23.02
2023-03-18T16:22:41.132Z,23.03
2023-03-18T16:23:41.132Z,23.03
2023-03-18T16:24:41.110Z,23.03
2023-03-18T16:25:41.078Z,23.05
2023-03-18T16:26:41.076Z,23.03
2023-03-18T16:27:41.086Z,23.05
2023-03-18T16:28:43.266Z,23.05
2023-03-18T16:29:41.266Z,23.05
2023-03-18T16:30:41.225Z,23.08
2023-03-18T16:31:41.248Z,23.07
2023-03-18T16:32:41.212Z,23.09
2023-03-18T16:33:41.186Z,23.08
2023-03-18T16:34:41.159Z,23.08
2023-03-18T16:35:41.185Z,23.08
2023-03-18T16:36:41.138Z,23.08
2023-03-18T16:37:41.124Z,23.08
2023-03-18T16:38:41.141Z,23.07
2023-03-18T16:39:41.131Z,23.10
2023-03-18T16:40:41.100Z,23.11
2023-03-18T16:41:41.072Z,23.11
2023-03-18T16:42:41.069Z,23.12
2023-03-18T16:43:41.059Z,23.11
2023-03-18T16:44:41.032Z,23.13
2023-03-18T16:45:41.065Z,23.12
2023-03-18T16:46:41.008Z,23.14
2023-03-18T16:47:41.028Z,23.14
2023-03-18T16:48:41.011Z,23.13
2023-03-18T16:49:40.965Z,23.13
2023-03-18T16:50:40.943Z,23.15
2023-03-18T16:51:40.962Z,23.16
2023-03-18T16:52:40.930Z,23.19
2023-03-18T16:53:40.913Z,23.17
2023-03-18T16:54:41.075Z,23.19
2023-03-18T16:55:40.885Z,23.21
2023-03-18T16:56:40.880Z,23.23
2023-03-18T16:57:40.856Z,23.20
2023-03-18T16:58:40.868Z,23.20
2023-03-18T16:59:40.859Z,23.20
2023-03-18T17:00:40.831Z,23.22
2023-03-18T17:01:40.842Z,23.24
2023-03-18T17:02:40.824Z,23.24
2023-03-18T17:03:40.793Z,23.25
2023-03-18T17:04:40.820Z,23.24
2023-03-18T17:05:40.764Z,23.25
2023-03-18T17:06:40.796Z,23.26
2023-03-18T17:07:40.763Z,23.26
2023-03-18T17:08:40.758Z,23.28
2023-03-18T17:09:40.770Z,23.27
2023-03-18T17:10:40.782Z,23.26
2023-03-18T17:11:40.752Z,23.28
2023-03-18T17:12:40.726Z,23.28
2023-03-18T17:13:40.720Z,23.29
2023-03-18T17:14:40.718Z,23.27
2023-03-18T17:15:40.726Z,23.32
2023-03-18T17:16:40.747Z,23.30
2023-03-18T17:17:40.716Z,23.28
2023-03-18T17:18:40.696Z,23.30
2023-03-18T17:19:40.682Z,23.29
2023-03-18T17:20:40.662Z,23.31
2023-03-18T17:21:40.652Z,23.31
2023-03-18T17:22:40.655Z,23.30
2023-03-18T17:23:40.667Z,23.31
2023-03-18T17:24:40.658Z,23.31
2023-03-18T17:25:40.609Z,23.31
2023-03-18T19:58:39.529Z,23.66
2023-03-18T19:59:40.036Z,23.66
2023-03-18T20:00:39.524Z,23.66
2023-03-18T20:01:39.516Z,23.64
2023-03-18T20:02:39.484Z,23.65
2023-03-18T20:03:39.483Z,23.67
2023-03-18T20:04:39.480Z,23.67
2023-03-18T20:05:39.457Z,23.67
2023-03-18T20:06:39.465Z,23.68
2023-03-18T20:07:39.460Z,23.65
2023-03-18T20:08:39.460Z,23.68
2023-03-18T20:09:39.478Z,23.68
2023-03-18T20:10:39.434Z,23.67
2023-03-18T20:11:39.427Z,23.67
2023-03-18T20:12:39.432Z,23.66
2023-03-18T20:13:39.427Z,23.67
2023-03-18T20:14:39.409Z,23.70
2023-03-18T20:15:39.409Z,23.70
2023-03-18T20:16:39.468Z,23.72
2023-03-18T20:17:39.408Z,23.68
2023-03-18T20:18:39.400Z,23.69
2023-03-18T20:19:39.397Z,23.70
2023-03-18T20:29:39.352Z,23.69
2023-03-18T20:30:39.361Z,23.69
2023-03-18T20:31:39.440Z,23.69
2023-03-18T20:32:39.352Z,23.68
2023-03-18T20:33:39.334Z,23.70
2023-03-18T20:34:39.339Z,23.71
2023-03-18T20:35:39.428Z,23.69
2023-03-18T20:36:39.336Z,23.70
2023-03-18T20:37:39.430Z,23.71
2023-03-18T20:38:39.332Z,23.70
2023-03-18T20:39:39.341Z,23.70
2023-03-18T20:40:39.335Z,23.70
2023-03-18T20:41:39.341Z,23.72
2023-03-18T20:42:39.350Z,23.71
2023-03-18T20:43:39.342Z,23.70
2023-03-18T20:44:40.164Z,23.68
2023-03-18T20:45:39.331Z,23.71
2023-03-18T20:46:39.341Z,23.70
2023-03-18T20:47:39.320Z,23.71
2023-03-18T20:48:39.328Z,23.70
2023-03-18T20:49:39.321Z,23.71
2023-03-18T20:50:39.319Z,23.73
2023-03-18T20:51:39.323Z,23.71
2023-03-18T20:52:39.329Z,23.72
2023-03-18T20:53:39.329Z,23.72
2023-03-18T20:54:39.333Z,23.75
2023-03-18T20:55:39.334Z,23.72
2023-03-18T20:56:39.339Z,23.71
2023-03-18T20:57:39.329Z,23.72
2023-03-18T20:58:39.335Z,23.71
2023-03-18T20:59:39.321Z,23.71
2023-03-18T21:00:39.317Z,23.71
2023-03-18T21:01:39.358Z,23.74
2023-03-18T21:02:39.331Z,23.73
2023-03-18T21:03:39.309Z,23.72
2023-03-18T21:04:39.308Z,23.72
2023-03-18T21:05:39.315Z,23.71
2023-03-18T21:06:39.310Z,23.72
2023-03-18T21:07:39.327Z,23.70
2023-03-18T21:08:39.320Z,23.72
2023-03-18T21:09:39.290Z,23.71
2023-03-18T21:10:39.290Z,23.74
2023-03-18T21:11:39.285Z,23.73
2023-03-18T21:12:39.290Z,23.73
2023-03-18T21:13:39.593Z,23.70
2023-03-18T21:14:39.290Z,23.72
2023-03-18T21:15:39.290Z,23.72
2023-03-18T21:16:39.343Z,23.72
2023-03-18T21:17:39.294Z,23.73
2023-03-18T21:18:39.267Z,23.74
2023-03-18T21:19:39.276Z,23.72
2023-03-18T21:20:39.275Z,23.72
2023-03-18T21:21:39.277Z,23.73
2023-03-18T21:22:39.289Z,23.73
2023-03-18T21:23:39.271Z,23.71
2023-03-18T21:24:39.280Z,23.72
2023-03-18T21:25:39.270Z,23.72
2023-03-18T21:26:39.274Z,23.68
2023-03-18T21:27:39.288Z,23.68
2023-03-18T21:28:39.280Z,23.71
2023-03-18T21:29:39.293Z,23.71
2023-03-18T21:30:39.331Z,23.72
2023-03-18T21:31:39.282Z,23.73
2023-03-18T21:32:39.311Z,23.72
2023-03-18T21:33:39.295Z,23.70
2023-03-18T21:34:39.353Z,23.70
2023-03-18T21:35:39.383Z,23.71
2023-03-18T21:36:39.321Z,23.72
2023-03-18T21:37:39.327Z,23.74
2023-03-18T21:38:39.332Z,23.73
2023-03-18T21:39:39.345Z,23.73
2023-03-18T21:40:39.356Z,23.72
2023-03-18T21:41:39.359Z,23.74
2023-03-18T21:42:39.386Z,23.74
2023-03-18T21:43:39.383Z,23.71
2023-03-18T21:44:39.382Z,23.73
2023-03-18T21:45:39.407Z,23.73
2023-03-18T21:46:39.456Z,23.75
2023-03-18T21:47:39.443Z,23.75
2023-03-18T21:48:39.437Z,23.75
2023-03-18T21:49:39.446Z,23.73
2023-03-18T21:50:39.447Z,23.73
2023-03-18T21:51:40.426Z,23.71
2023-03-18T21:52:39.503Z,23.74
2023-03-18T21:53:39.484Z,23.74
2023-03-18T21:54:39.485Z,23.73
2023-03-18T21:55:39.495Z,23.72
2023-03-18T21:56:39.522Z,23.72
2023-03-18T21:57:39.532Z,23.73
2023-03-18T21:58:39.527Z,23.74
2023-03-18T21:59:39.551Z,23.72
2023-03-18T22:00:39.559Z,23.73
2023-03-18T22:01:39.720Z,23.71
2023-03-18T22:02:39.576Z,23.75